Lazy Duck III Of Pen — SD6052 — position and weather

sailwx.info

Track history (hours):
 
Tides and Currents Weather Stations Pressure Air Temp Water Temp Dewpoint Dewpoint Depression Visibility Wind Speed Wind Dir Waves Ship Positions

Lazy Duck III Of Pen

Last reported at 2017-Nov-05 16:53 UTC. Time now 2017-Nov-21 15:50 UTC.
Position N 39°34' E 002°38'.
Warning: this ship's position is 15 days out of date.

Length 15 m.

Type: Pleasure craft. MMSI: 265629900.

Date/timePositionNaut miles runAvg speedWind from/ knotsBaromVisibWave heightAir tempDewpointWater temp
2017-Nov-05 16:53N 39°34' E 002°38'  
2017-Oct-29 18:29N 39°34' E 002°38'0 0.0
2017-Oct-29 17:59N 39°34' E 002°38'0 0.0
2017-Oct-29 17:29N 39°34' E 002°38'0 0.0
2017-Oct-29 16:59N 39°34' E 002°38'1 3.1
2017-Oct-29 16:30N 39°33' E 002°39'4 8.2
2017-Oct-29 16:00N 39°29' E 002°41'4 8.0
2017-Oct-29 15:30N 39°25' E 002°43'4 7.3
2017-Oct-29 15:00N 39°22' E 002°46'1 0.2
2017-Oct-29 07:23N 39°21' E 002°47'3 8.4
2017-Oct-29 07:00N 39°24' E 002°44'4 8.4
2017-Oct-29 06:30N 39°27' E 002°42'4 8.4
2017-Oct-29 06:00N 39°31' E 002°40'3 5.7
2017-Oct-29 05:30N 39°34' E 002°38'0 0.0
2017-Oct-29 05:00N 39°34' E 002°38'0 0.0
2017-Oct-29 04:30N 39°34' E 002°38'0 0.0
2017-Oct-29 04:00N 39°34' E 002°38'  
Track history (hours):
 
Tides and Currents Weather Stations Pressure Air Temp Water Temp Dewpoint Dewpoint Depression Visibility Wind Speed Wind Dir Waves Ship Positions

Lazy Duck III Of Pen

Last reported at 2017-Nov-05 16:53 UTC. Time now 2017-Nov-21 15:50 UTC.
Position N 39°34' E 002°38'.
Warning: this ship's position is 15 days out of date.

Length 15 m.

Type: Pleasure craft. MMSI: 265629900.

Date/timePositionNaut miles runAvg speedWind from/ knotsBaromVisibWave heightAir tempDewpointWater temp
2017-Nov-05 16:53N 39°34' E 002°38'  
2017-Oct-29 18:29N 39°34' E 002°38'0 0.0
2017-Oct-29 17:59N 39°34' E 002°38'0 0.0
2017-Oct-29 17:29N 39°34' E 002°38'0 0.0
2017-Oct-29 16:59N 39°34' E 002°38'1 3.1
2017-Oct-29 16:30N 39°33' E 002°39'4 8.2
2017-Oct-29 16:00N 39°29' E 002°41'4 8.0
2017-Oct-29 15:30N 39°25' E 002°43'4 7.3
2017-Oct-29 15:00N 39°22' E 002°46'1 0.2
2017-Oct-29 07:23N 39°21' E 002°47'3 8.4
2017-Oct-29 07:00N 39°24' E 002°44'4 8.4
2017-Oct-29 06:30N 39°27' E 002°42'4 8.4
2017-Oct-29 06:00N 39°31' E 002°40'3 5.7
2017-Oct-29 05:30N 39°34' E 002°38'0 0.0
2017-Oct-29 05:00N 39°34' E 002°38'0 0.0
2017-Oct-29 04:30N 39°34' E 002°38'0 0.0
2017-Oct-29 04:00N 39°34' E 002°38'  

Dump ship's entire track history